sensor_id;sensor_type;location;lat;lon;timestamp;pressure;altitude;pressure_sealevel;temperature;humidity
54262;BME280;40174;52.364;6.452;2024-02-23T00:01:10;98263.78;;;4.59;100.00
54262;BME280;40174;52.364;6.452;2024-02-23T00:03:37;98267.75;;;4.63;100.00
54262;BME280;40174;52.364;6.452;2024-02-23T00:06:05;98282.03;;;4.51;100.00
54262;BME280;40174;52.364;6.452;2024-02-23T00:08:32;98287.00;;;4.44;100.00
54262;BME280;40174;52.364;6.452;2024-02-23T00:10:58;98296.88;;;4.50;100.00
54262;BME280;40174;52.364;6.452;2024-02-23T00:13:25;98304.91;;;4.39;100.00
54262;BME280;40174;52.364;6.452;2024-02-23T00:15:51;98311.63;;;4.42;100.00
54262;BME280;40174;52.364;6.452;2024-02-23T00:18:18;98336.34;;;4.29;100.00
54262;BME280;40174;52.364;6.452;2024-02-23T00:20:46;98313.56;;;4.22;100.00
54262;BME280;40174;52.364;6.452;2024-02-23T00:23:14;98332.84;;;4.11;100.00
54262;BME280;40174;52.364;6.452;2024-02-23T00:25:41;98333.97;;;4.08;100.00
54262;BME280;40174;52.364;6.452;2024-02-23T00:28:08;98353.72;;;4.21;100.00
54262;BME280;40174;52.364;6.452;2024-02-23T00:30:34;98331.19;;;4.10;100.00
54262;BME280;40174;52.364;6.452;2024-02-23T00:33:01;98340.56;;;4.03;100.00
54262;BME280;40174;52.364;6.452;2024-02-23T00:35:28;98347.88;;;3.99;100.00
54262;BME280;40174;52.364;6.452;2024-02-23T00:37:54;98344.41;;;4.08;100.00
54262;BME280;40174;52.364;6.452;2024-02-23T00:40:22;98353.25;;;3.98;100.00
54262;BME280;40174;52.364;6.452;2024-02-23T00:42:49;98352.94;;;4.01;100.00
54262;BME280;40174;52.364;6.452;2024-02-23T00:45:16;98328.91;;;3.97;100.00
54262;BME280;40174;52.364;6.452;2024-02-23T00:47:43;98323.94;;;3.94;100.00
54262;BME280;40174;52.364;6.452;2024-02-23T00:50:11;98345.97;;;3.91;100.00
54262;BME280;40174;52.364;6.452;2024-02-23T00:52:37;98344.47;;;3.89;100.00
54262;BME280;40174;52.364;6.452;2024-02-23T00:55:05;98336.31;;;3.92;100.00
54262;BME280;40174;52.364;6.452;2024-02-23T00:57:34;98353.41;;;3.77;100.00
54262;BME280;40174;52.364;6.452;2024-02-23T01:00:02;98371.16;;;3.83;100.00
54262;BME280;40174;52.364;6.452;2024-02-23T01:02:30;98361.66;;;3.82;100.00
54262;BME280;40174;52.364;6.452;2024-02-23T01:04:57;98359.44;;;3.87;100.00
54262;BME280;40174;52.364;6.452;2024-02-23T01:07:24;98369.63;;;3.90;100.00
54262;BME280;40174;52.364;6.452;2024-02-23T01:09:50;98368.94;;;3.88;100.00
54262;BME280;40174;52.364;6.452;2024-02-23T01:12:19;98381.03;;;3.89;100.00
54262;BME280;40174;52.364;6.452;2024-02-23T01:14:49;98380.63;;;3.93;100.00
54262;BME280;40174;52.364;6.452;2024-02-23T01:17:16;98395.50;;;3.93;100.00
54262;BME280;40174;52.364;6.452;2024-02-23T01:19:43;98387.34;;;3.96;100.00
54262;BME280;40174;52.364;6.452;2024-02-23T01:22:10;98401.81;;;3.90;100.00
54262;BME280;40174;52.364;6.452;2024-02-23T01:24:36;98405.25;;;3.91;100.00
54262;BME280;40174;52.364;6.452;2024-02-23T01:27:03;98419.69;;;3.85;100.00
54262;BME280;40174;52.364;6.452;2024-02-23T01:29:30;98420.13;;;3.90;100.00
54262;BME280;40174;52.364;6.452;2024-02-23T01:31:58;98422.88;;;3.89;100.00
54262;BME280;40174;52.364;6.452;2024-02-23T01:34:24;98431.25;;;3.92;100.00
54262;BME280;40174;52.364;6.452;2024-02-23T01:36:51;98434.81;;;3.91;100.00
54262;BME280;40174;52.364;6.452;2024-02-23T01:39:18;98423.00;;;3.87;100.00
54262;BME280;40174;52.364;6.452;2024-02-23T01:41:45;98434.69;;;3.93;100.00
54262;BME280;40174;52.364;6.452;2024-02-23T01:44:12;98443.63;;;3.90;100.00
54262;BME280;40174;52.364;6.452;2024-02-23T01:46:40;98451.91;;;3.86;100.00
54262;BME280;40174;52.364;6.452;2024-02-23T01:49:09;98462.47;;;3.94;100.00
54262;BME280;40174;52.364;6.452;2024-02-23T01:51:35;98453.81;;;3.93;100.00
54262;BME280;40174;52.364;6.452;2024-02-23T01:54:02;98464.25;;;3.93;100.00
54262;BME280;40174;52.364;6.452;2024-02-23T01:56:30;98460.97;;;3.91;100.00
54262;BME280;40174;52.364;6.452;2024-02-23T01:58:58;98475.41;;;3.95;100.00
54262;BME280;40174;52.364;6.452;2024-02-23T02:01:25;98480.63;;;3.95;100.00
54262;BME280;40174;52.364;6.452;2024-02-23T02:03:51;98492.31;;;3.91;100.00
54262;BME280;40174;52.364;6.452;2024-02-23T02:06:19;98491.91;;;3.96;100.00
54262;BME280;40174;52.364;6.452;2024-02-23T02:08:46;98491.50;;;3.91;100.00
54262;BME280;40174;52.364;6.452;2024-02-23T02:11:12;98496.31;;;3.95;100.00
54262;BME280;40174;52.364;6.452;2024-02-23T02:13:40;98506.19;;;3.92;100.00
54262;BME280;40174;52.364;6.452;2024-02-23T02:16:06;98501.00;;;3.82;100.00
54262;BME280;40174;52.364;6.452;2024-02-23T02:18:33;98513.47;;;3.79;100.00
54262;BME280;40174;52.364;6.452;2024-02-23T02:21:00;98510.06;;;3.68;100.00
54262;BME280;40174;52.364;6.452;2024-02-23T02:23:28;98521.47;;;3.77;100.00
54262;BME280;40174;52.364;6.452;2024-02-23T02:25:55;98525.84;;;3.67;100.00
54262;BME280;40174;52.364;6.452;2024-02-23T02:28:22;98540.84;;;3.65;100.00
54262;BME280;40174;52.364;6.452;2024-02-23T02:30:49;98567.94;;;3.64;100.00
54262;BME280;40174;52.364;6.452;2024-02-23T02:33:16;98548.09;;;3.51;100.00
54262;BME280;40174;52.364;6.452;2024-02-23T02:35:43;98535.16;;;3.40;100.00
54262;BME280;40174;52.364;6.452;2024-02-23T02:38:10;98541.59;;;3.36;100.00
54262;BME280;40174;52.364;6.452;2024-02-23T02:40:38;98520.47;;;3.49;100.00
54262;BME280;40174;52.364;6.452;2024-02-23T02:43:05;98528.59;;;3.56;100.00
54262;BME280;40174;52.364;6.452;2024-02-23T02:45:32;98523.94;;;3.59;100.00
54262;BME280;40174;52.364;6.452;2024-02-23T02:48:00;98527.09;;;3.63;100.00
54262;BME280;40174;52.364;6.452;2024-02-23T02:50:27;98530.78;;;3.60;100.00
54262;BME280;40174;52.364;6.452;2024-02-23T02:52:53;98537.81;;;3.60;100.00
54262;BME280;40174;52.364;6.452;2024-02-23T02:55:20;98532.44;;;3.51;100.00
54262;BME280;40174;52.364;6.452;2024-02-23T02:57:48;98531.88;;;3.48;100.00
54262;BME280;40174;52.364;6.452;2024-02-23T03:00:15;98520.75;;;3.46;100.00
54262;BME280;40174;52.364;6.452;2024-02-23T03:02:41;98522.53;;;3.45;100.00
54262;BME280;40174;52.364;6.452;2024-02-23T03:05:08;98527.19;;;3.51;100.00
54262;BME280;40174;52.364;6.452;2024-02-23T03:07:35;98525.31;;;3.63;100.00
54262;BME280;40174;52.364;6.452;2024-02-23T03:10:01;98537.81;;;3.60;100.00
54262;BME280;40174;52.364;6.452;2024-02-23T03:12:28;98545.25;;;3.64;100.00
54262;BME280;40174;52.364;6.452;2024-02-23T03:14:56;98541.53;;;3.77;100.00
54262;BME280;40174;52.364;6.452;2024-02-23T03:17:22;98539.63;;;3.79;100.00
54262;BME280;40174;52.364;6.452;2024-02-23T03:19:49;98542.78;;;3.82;100.00
54262;BME280;40174;52.364;6.452;2024-02-23T03:22:16;98545.69;;;3.79;100.00
54262;BME280;40174;52.364;6.452;2024-02-23T03:24:43;98544.84;;;3.79;100.00
54262;BME280;40174;52.364;6.452;2024-02-23T03:27:09;98550.34;;;3.75;100.00
54262;BME280;40174;52.364;6.452;2024-02-23T03:29:38;98545.53;;;3.81;100.00
54262;BME280;40174;52.364;6.452;2024-02-23T03:32:07;98547.19;;;3.82;100.00
54262;BME280;40174;52.364;6.452;2024-02-23T03:34:35;98556.69;;;3.83;100.00
54262;BME280;40174;52.364;6.452;2024-02-23T03:37:02;98571.41;;;3.84;100.00
54262;BME280;40174;52.364;6.452;2024-02-23T03:39:28;98562.19;;;3.80;100.00
54262;BME280;40174;52.364;6.452;2024-02-23T03:41:55;98560.53;;;3.79;100.00
54262;BME280;40174;52.364;6.452;2024-02-23T03:44:22;98562.31;;;3.88;100.00
54262;BME280;40174;52.364;6.452;2024-02-23T03:46:49;98575.25;;;3.80;100.00
54262;BME280;40174;52.364;6.452;2024-02-23T03:49:17;98570.03;;;3.80;100.00
54262;BME280;40174;52.364;6.452;2024-02-23T03:51:44;98578.97;;;3.87;100.00
54262;BME280;40174;52.364;6.452;2024-02-23T03:54:10;98583.09;;;3.80;100.00
54262;BME280;40174;52.364;6.452;2024-02-23T03:56:40;98591.88;;;3.79;100.00
54262;BME280;40174;52.364;6.452;2024-02-23T03:59:07;98593.78;;;3.77;100.00
54262;BME280;40174;52.364;6.452;2024-02-23T04:01:36;98585.84;;;3.78;100.00
54262;BME280;40174;52.364;6.452;2024-02-23T04:04:03;98591.88;;;3.79;100.00
54262;BME280;40174;52.364;6.452;2024-02-23T04:06:31;98597.94;;;3.79;100.00
54262;BME280;40174;52.364;6.452;2024-02-23T04:08:58;98605.22;;;3.75;100.00
54262;BME280;40174;52.364;6.452;2024-02-23T04:11:24;98612.66;;;3.80;100.00
54262;BME280;40174;52.364;6.452;2024-02-23T04:13:51;98610.44;;;3.75;100.00
54262;BME280;40174;52.364;6.452;2024-02-23T04:16:18;98607.84;;;3.75;100.00
54262;BME280;40174;52.364;6.452;2024-02-23T04:18:44;98615.84;;;3.84;100.00
54262;BME280;40174;52.364;6.452;2024-02-23T04:21:11;98619.56;;;3.81;100.00
54262;BME280;40174;52.364;6.452;2024-02-23T04:23:40;98623.38;;;3.77;100.00
54262;BME280;40174;52.364;6.452;2024-02-23T04:26:08;98626.00;;;3.77;100.00
54262;BME280;40174;52.364;6.452;2024-02-23T04:28:37;98620.78;;;3.77;100.00
54262;BME280;40174;52.364;6.452;2024-02-23T04:31:04;98636.84;;;3.72;100.00
54262;BME280;40174;52.364;6.452;2024-02-23T04:33:31;98624.75;;;3.71;100.00
54262;BME280;40174;52.364;6.452;2024-02-23T04:35:58;98636.19;;;3.80;100.00
54262;BME280;40174;52.364;6.452;2024-02-23T04:38:25;98643.91;;;3.82;100.00
54262;BME280;40174;52.364;6.452;2024-02-23T04:40:52;98647.03;;;3.75;100.00
54262;BME280;40174;52.364;6.452;2024-02-23T04:43:19;98636.56;;;3.75;100.00
54262;BME280;40174;52.364;6.452;2024-02-23T04:45:46;98641.81;;;3.75;100.00
54262;BME280;40174;52.364;6.452;2024-02-23T04:48:13;98652.84;;;3.89;100.00
54262;BME280;40174;52.364;6.452;2024-02-23T04:50:39;98641.28;;;3.82;100.00
54262;BME280;40174;52.364;6.452;2024-02-23T04:53:06;98652.44;;;3.84;100.00
54262;BME280;40174;52.364;6.452;2024-02-23T04:55:33;98664.53;;;3.85;100.00
54262;BME280;40174;52.364;6.452;2024-02-23T04:58:01;98660.00;;;3.96;100.00
54262;BME280;40174;52.364;6.452;2024-02-23T05:00:28;98658.78;;;3.91;100.00
54262;BME280;40174;52.364;6.452;2024-02-23T05:02:58;98663.31;;;3.89;100.00
54262;BME280;40174;52.364;6.452;2024-02-23T05:05:25;98662.59;;;3.87;100.00
54262;BME280;40174;52.364;6.452;2024-02-23T05:07:51;98661.50;;;3.80;100.00
54262;BME280;40174;52.364;6.452;2024-02-23T05:10:20;98673.88;;;3.87;100.00
54262;BME280;40174;52.364;6.452;2024-02-23T05:12:48;98670.31;;;3.88;100.00
54262;BME280;40174;52.364;6.452;2024-02-23T05:15:16;98678.69;;;3.82;100.00
54262;BME280;40174;52.364;6.452;2024-02-23T05:17:42;98673.47;;;3.82;100.00
54262;BME280;40174;52.364;6.452;2024-02-23T05:20:10;98675.25;;;3.82;100.00
54262;BME280;40174;52.364;6.452;2024-02-23T05:22:38;98683.78;;;3.84;100.00
54262;BME280;40174;52.364;6.452;2024-02-23T05:25:06;98680.63;;;3.90;100.00
54262;BME280;40174;52.364;6.452;2024-02-23T05:27:32;98676.34;;;3.79;100.00
54262;BME280;40174;52.364;6.452;2024-02-23T05:29:59;98674.84;;;3.86;100.00
54262;BME280;40174;52.364;6.452;2024-02-23T05:32:27;98680.19;;;3.85;100.00
54262;BME280;40174;52.364;6.452;2024-02-23T05:34:54;98680.59;;;3.80;100.00
54262;BME280;40174;52.364;6.452;2024-02-23T05:37:22;98681.56;;;3.79;100.00
54262;BME280;40174;52.364;6.452;2024-02-23T05:39:49;98680.47;;;3.82;100.00
54262;BME280;40174;52.364;6.452;2024-02-23T05:42:16;98684.88;;;3.81;100.00
54262;BME280;40174;52.364;6.452;2024-02-23T05:44:43;98679.09;;;3.78;100.00
54262;BME280;40174;52.364;6.452;2024-02-23T05:47:10;98679.09;;;3.78;100.00
54262;BME280;40174;52.364;6.452;2024-02-23T05:49:38;98677.56;;;3.75;100.00
54262;BME280;40174;52.364;6.452;2024-02-23T05:52:04;98675.78;;;3.75;100.00
54262;BME280;40174;52.364;6.452;2024-02-23T05:54:31;98683.34;;;3.79;100.00
54262;BME280;40174;52.364;6.452;2024-02-23T05:56:58;98673.44;;;3.72;100.00
54262;BME280;40174;52.364;6.452;2024-02-23T05:59:26;98689.34;;;3.69;100.00
54262;BME280;40174;52.364;6.452;2024-02-23T06:01:52;98679.47;;;3.73;100.00
54262;BME280;40174;52.364;6.452;2024-02-23T06:04:22;98680.44;;;3.72;100.00
54262;BME280;40174;52.364;6.452;2024-02-23T06:06:50;98689.94;;;3.73;100.00
54262;BME280;40174;52.364;6.452;2024-02-23T06:09:17;98686.34;;;3.74;100.00
54262;BME280;40174;52.364;6.452;2024-02-23T06:11:44;98694.09;;;3.85;100.00
54262;BME280;40174;52.364;6.452;2024-02-23T06:14:10;98693.66;;;3.80;100.00
54262;BME280;40174;52.364;6.452;2024-02-23T06:16:37;98694.63;;;3.79;100.00
54262;BME280;40174;52.364;6.452;2024-02-23T06:19:04;98706.03;;;3.78;100.00
54262;BME280;40174;52.364;6.452;2024-02-23T06:21:30;98708.66;;;3.78;100.00
54262;BME280;40174;52.364;6.452;2024-02-23T06:23:59;98705.22;;;3.78;100.00
54262;BME280;40174;52.364;6.452;2024-02-23T06:26:25;98706.16;;;3.77;100.00
54262;BME280;40174;52.364;6.452;2024-02-23T06:28:52;98706.16;;;3.77;100.00
54262;BME280;40174;52.364;6.452;2024-02-23T06:31:18;98711.53;;;3.75;100.00
54262;BME280;40174;52.364;6.452;2024-02-23T06:33:45;98713.19;;;3.76;100.00
54262;BME280;40174;52.364;6.452;2024-02-23T06:36:14;98714.97;;;3.75;100.00
54262;BME280;40174;52.364;6.452;2024-02-23T06:38:41;98717.06;;;3.82;100.00
54262;BME280;40174;52.364;6.452;2024-02-23T06:41:09;98719.28;;;3.86;100.00
54262;BME280;40174;52.364;6.452;2024-02-23T06:43:36;98711.56;;;3.85;100.00
54262;BME280;40174;52.364;6.452;2024-02-23T06:46:05;98714.19;;;3.85;100.00
54262;BME280;40174;52.364;6.452;2024-02-23T06:48:31;98709.94;;;3.84;100.00
54262;BME280;40174;52.364;6.452;2024-02-23T06:50:58;98723.53;;;3.87;100.00
54262;BME280;40174;52.364;6.452;2024-02-23T06:53:24;98725.06;;;3.90;100.00
54262;BME280;40174;52.364;6.452;2024-02-23T06:55:51;98726.16;;;3.87;100.00
54262;BME280;40174;52.364;6.452;2024-02-23T06:58:19;98726.84;;;3.89;100.00
54262;BME280;40174;52.364;6.452;2024-02-23T07:00:46;98725.91;;;3.90;100.00
54262;BME280;40174;52.364;6.452;2024-02-23T07:03:13;98729.22;;;3.92;100.00
54262;BME280;40174;52.364;6.452;2024-02-23T07:05:40;98727.66;;;3.90;100.00
54262;BME280;40174;52.364;6.452;2024-02-23T07:08:07;98728.63;;;3.89;100.00
54262;BME280;40174;52.364;6.452;2024-02-23T07:10:34;98729.75;;;3.96;100.00
54262;BME280;40174;52.364;6.452;2024-02-23T07:13:00;98728.53;;;4.00;100.00
54262;BME280;40174;52.364;6.452;2024-02-23T07:15:28;98733.78;;;4.00;100.00
54262;BME280;40174;52.364;6.452;2024-02-23T07:17:55;98725.22;;;3.98;100.00
54262;BME280;40174;52.364;6.452;2024-02-23T07:20:22;98740.78;;;4.00;100.00
54262;BME280;40174;52.364;6.452;2024-02-23T07:22:48;98743.13;;;4.03;100.00
54262;BME280;40174;52.364;6.452;2024-02-23T07:25:16;98735.72;;;4.08;100.00
54262;BME280;40174;52.364;6.452;2024-02-23T07:27:42;98737.63;;;4.06;100.00
54262;BME280;40174;52.364;6.452;2024-02-23T07:30:11;98727.88;;;4.08;100.00
54262;BME280;40174;52.364;6.452;2024-02-23T07:32:39;98735.47;;;4.11;100.00
54262;BME280;40174;52.364;6.452;2024-02-23T07:35:06;98738.22;;;4.19;100.00
54262;BME280;40174;52.364;6.452;2024-02-23T07:37:33;98735.75;;;4.18;100.00
54262;BME280;40174;52.364;6.452;2024-02-23T07:39:59;98735.88;;;4.16;100.00
54262;BME280;40174;52.364;6.452;2024-02-23T07:42:26;98744.41;;;4.18;100.00
54262;BME280;40174;52.364;6.452;2024-02-23T07:44:55;98742.53;;;4.30;100.00
54262;BME280;40174;52.364;6.452;2024-02-23T07:47:22;98734.84;;;4.38;100.00
54262;BME280;40174;52.364;6.452;2024-02-23T07:49:50;98743.63;;;4.37;100.00
54262;BME280;40174;52.364;6.452;2024-02-23T07:52:17;98737.75;;;4.35;100.00
54262;BME280;40174;52.364;6.452;2024-02-23T07:54:44;98733.88;;;4.39;100.00
54262;BME280;40174;52.364;6.452;2024-02-23T07:57:11;98731.69;;;4.44;100.00
54262;BME280;40174;52.364;6.452;2024-02-23T07:59:38;98730.84;;;4.44;100.00
54262;BME280;40174;52.364;6.452;2024-02-23T08:02:05;98739.38;;;4.46;100.00
54262;BME280;40174;52.364;6.452;2024-02-23T08:04:32;98730.44;;;4.48;100.00
54262;BME280;40174;52.364;6.452;2024-02-23T08:07:00;98731.56;;;4.55;100.00
54262;BME280;40174;52.364;6.452;2024-02-23T08:09:27;98739.00;;;4.60;100.00
54262;BME280;40174;52.364;6.452;2024-02-23T08:11:57;98737.09;;;4.62;100.00
54262;BME280;40174;52.364;6.452;2024-02-23T08:14:24;98738.16;;;4.59;100.00
54262;BME280;40174;52.364;6.452;2024-02-23T08:16:51;98725.53;;;4.65;100.00
54262;BME280;40174;52.364;6.452;2024-02-23T08:19:17;98727.72;;;4.69;100.00
54262;BME280;40174;52.364;6.452;2024-02-23T08:21:44;98722.38;;;4.71;100.00
54262;BME280;40174;52.364;6.452;2024-02-23T08:24:12;98730.75;;;4.74;100.00
54262;BME280;40174;52.364;6.452;2024-02-23T08:26:38;98717.94;;;4.81;100.00
54262;BME280;40174;52.364;6.452;2024-02-23T08:29:06;98715.59;;;4.88;100.00
54262;BME280;40174;52.364;6.452;2024-02-23T08:31:34;98717.09;;;4.90;100.00
54262;BME280;40174;52.364;6.452;2024-02-23T08:34:00;98710.06;;;4.91;100.00
54262;BME280;40174;52.364;6.452;2024-02-23T08:36:27;98728.66;;;4.97;100.00
54262;BME280;40174;52.364;6.452;2024-02-23T08:38:54;98721.78;;;4.96;100.00
54262;BME280;40174;52.364;6.452;2024-02-23T08:41:22;98714.63;;;4.98;100.00
54262;BME280;40174;52.364;6.452;2024-02-23T08:43:49;98704.84;;;5.00;100.00
54262;BME280;40174;52.364;6.452;2024-02-23T08:46:16;98703.06;;;5.01;100.00
54262;BME280;40174;52.364;6.452;2024-02-23T08:48:43;98705.38;;;5.04;100.00
54262;BME280;40174;52.364;6.452;2024-02-23T08:51:10;98696.56;;;5.15;100.00
54262;BME280;40174;52.364;6.452;2024-02-23T08:53:37;98694.06;;;5.23;100.00
54262;BME280;40174;52.364;6.452;2024-02-23T08:56:04;98691.72;;;5.30;100.00
54262;BME280;40174;52.364;6.452;2024-02-23T08:58:33;98688.66;;;5.34;100.00
54262;BME280;40174;52.364;6.452;2024-02-23T09:01:00;98692.34;;;5.41;100.00
54262;BME280;40174;52.364;6.452;2024-02-23T09:03:27;98692.50;;;5.40;100.00
54262;BME280;40174;52.364;6.452;2024-02-23T09:05:53;98693.22;;;5.32;100.00
54262;BME280;40174;52.364;6.452;2024-02-23T09:08:22;98693.91;;;5.34;100.00
54262;BME280;40174;52.364;6.452;2024-02-23T09:10:49;98695.41;;;5.37;100.00
54262;BME280;40174;52.364;6.452;2024-02-23T09:13:15;98677.19;;;5.45;100.00
54262;BME280;40174;52.364;6.452;2024-02-23T09:15:44;98684.88;;;5.47;100.00
54262;BME280;40174;52.364;6.452;2024-02-23T09:18:10;98686.81;;;5.54;100.00
54262;BME280;40174;52.364;6.452;2024-02-23T09:20:37;98683.59;;;5.60;100.00
54262;BME280;40174;52.364;6.452;2024-02-23T09:23:04;98683.31;;;5.63;100.00
54262;BME280;40174;52.364;6.452;2024-02-23T09:25:30;98680.56;;;5.65;100.00
54262;BME280;40174;52.364;6.452;2024-02-23T09:27:57;98683.84;;;5.67;100.00
54262;BME280;40174;52.364;6.452;2024-02-23T09:30:24;98705.66;;;5.68;100.00
54262;BME280;40174;52.364;6.452;2024-02-23T09:32:52;98699.31;;;5.70;100.00
54262;BME280;40174;52.364;6.452;2024-02-23T09:35:19;98702.44;;;5.74;100.00
54262;BME280;40174;52.364;6.452;2024-02-23T09:37:45;98695.25;;;5.76;100.00
54262;BME280;40174;52.364;6.452;2024-02-23T09:40:12;98696.19;;;5.84;100.00
54262;BME280;40174;52.364;6.452;2024-02-23T09:42:40;98710.13;;;5.85;100.00
54262;BME280;40174;52.364;6.452;2024-02-23T09:45:08;98689.69;;;5.89;100.00
54262;BME280;40174;52.364;6.452;2024-02-23T09:47:37;98699.06;;;5.91;100.00
54262;BME280;40174;52.364;6.452;2024-02-23T09:50:06;98701.44;;;5.94;100.00
54262;BME280;40174;52.364;6.452;2024-02-23T09:52:35;98701.00;;;5.99;100.00
54262;BME280;40174;52.364;6.452;2024-02-23T09:55:01;98719.38;;;5.99;100.00
54262;BME280;40174;52.364;6.452;2024-02-23T09:57:29;98721.31;;;5.97;100.00
54262;BME280;40174;52.364;6.452;2024-02-23T09:59:55;98716.88;;;5.97;100.00
54262;BME280;40174;52.364;6.452;2024-02-23T10:02:22;98721.00;;;6.00;100.00
54262;BME280;40174;52.364;6.452;2024-02-23T10:04:54;98708.44;;;6.03;100.00
54262;BME280;40174;52.364;6.452;2024-02-23T10:07:24;98709.13;;;6.06;100.00
54262;BME280;40174;52.364;6.452;2024-02-23T10:09:52;98723.50;;;6.01;100.00
54262;BME280;40174;52.364;6.452;2024-02-23T10:12:20;98730.38;;;6.02;100.00
54262;BME280;40174;52.364;6.452;2024-02-23T10:14:47;98712.69;;;6.04;100.00
54262;BME280;40174;52.364;6.452;2024-02-23T10:17:14;98708.72;;;5.91;100.00
54262;BME280;40174;52.364;6.452;2024-02-23T10:19:41;98731.63;;;5.98;100.00
54262;BME280;40174;52.364;6.452;2024-02-23T10:22:07;98730.53;;;6.01;100.00
54262;BME280;40174;52.364;6.452;2024-02-23T10:24:37;98734.25;;;5.98;100.00
54262;BME280;40174;52.364;6.452;2024-02-23T10:27:04;98738.41;;;6.01;100.00
54262;BME280;40174;52.364;6.452;2024-02-23T10:29:31;98714.81;;;6.01;100.00
54262;BME280;40174;52.364;6.452;2024-02-23T10:31:58;98730.25;;;6.04;100.00
54262;BME280;40174;52.364;6.452;2024-02-23T10:34:27;98738.09;;;6.04;100.00
54262;BME280;40174;52.364;6.452;2024-02-23T10:36:55;98733.81;;;6.03;100.00
54262;BME280;40174;52.364;6.452;2024-02-23T10:39:24;98737.97;;;6.06;100.00
54262;BME280;40174;52.364;6.452;2024-02-23T10:41:56;98734.22;;;6.08;100.00
54262;BME280;40174;52.364;6.452;2024-02-23T10:44:24;98740.97;;;6.11;100.00
54262;BME280;40174;52.364;6.452;2024-02-23T10:46:50;98747.19;;;6.10;100.00
54262;BME280;40174;52.364;6.452;2024-02-23T10:49:17;98747.72;;;6.13;100.00
54262;BME280;40174;52.364;6.452;2024-02-23T10:51:47;98744.56;;;6.10;100.00
54262;BME280;40174;52.364;6.452;2024-02-23T10:54:15;98755.03;;;6.10;100.00
54262;BME280;40174;52.364;6.452;2024-02-23T10:56:49;98765.69;;;6.08;100.00
54262;BME280;40174;52.364;6.452;2024-02-23T10:59:18;98760.84;;;6.13;100.00
54262;BME280;40174;52.364;6.452;2024-02-23T11:01:46;98761.81;;;6.12;100.00
54262;BME280;40174;52.364;6.452;2024-02-23T11:04:15;98770.25;;;6.06;100.00
54262;BME280;40174;52.364;6.452;2024-02-23T11:06:42;98771.75;;;6.09;100.00
54262;BME280;40174;52.364;6.452;2024-02-23T11:09:12;98773.84;;;6.05;100.00
54262;BME280;40174;52.364;6.452;2024-02-23T11:11:39;98773.59;;;5.98;100.00
54262;BME280;40174;52.364;6.452;2024-02-23T11:14:07;98780.50;;;5.99;100.00
54262;BME280;40174;52.364;6.452;2024-02-23T11:16:40;98784.09;;;5.89;100.00
54262;BME280;40174;52.364;6.452;2024-02-23T11:19:09;98788.50;;;5.88;100.00
54262;BME280;40174;52.364;6.452;2024-02-23T11:21:37;98783.53;;;5.85;100.00
54262;BME280;40174;52.364;6.452;2024-02-23T11:24:05;98782.44;;;5.88;100.00
54262;BME280;40174;52.364;6.452;2024-02-23T11:26:32;98788.91;;;5.93;100.00
54262;BME280;40174;52.364;6.452;2024-02-23T11:29:10;98781.44;;;5.98;100.00
54262;BME280;40174;52.364;6.452;2024-02-23T11:31:45;98788.09;;;5.93;100.00
54262;BME280;40174;52.364;6.452;2024-02-23T11:34:12;98778.53;;;5.92;100.00
54262;BME280;40174;52.364;6.452;2024-02-23T11:36:39;98773.31;;;5.92;100.00
54262;BME280;40174;52.364;6.452;2024-02-23T11:39:05;98785.19;;;5.96;100.00
54262;BME280;40174;52.364;6.452;2024-02-23T11:41:32;98784.94;;;5.99;100.00
54262;BME280;40174;52.364;6.452;2024-02-23T11:44:00;98789.72;;;5.94;100.00
54262;BME280;40174;52.364;6.452;2024-02-23T11:46:28;98783.56;;;5.95;100.00
54262;BME280;40174;52.364;6.452;2024-02-23T11:48:56;98779.00;;;5.97;100.00
54262;BME280;40174;52.364;6.452;2024-02-23T11:51:24;98779.38;;;6.02;100.00
54262;BME280;40174;52.364;6.452;2024-02-23T11:53:52;98777.88;;;5.99;100.00
54262;BME280;40174;52.364;6.452;2024-02-23T11:56:22;98778.69;;;6.00;100.00
54262;BME280;40174;52.364;6.452;2024-02-23T11:58:49;98776.91;;;5.91;100.00
54262;BME280;40174;52.364;6.452;2024-02-23T12:01:16;98787.00;;;5.95;100.00
54262;BME280;40174;52.364;6.452;2024-02-23T12:03:43;98788.09;;;5.93;100.00
54262;BME280;40174;52.364;6.452;2024-02-23T12:06:11;98795.94;;;5.93;100.00
54262;BME280;40174;52.364;6.452;2024-02-23T12:08:38;98794.16;;;5.93;100.00
54262;BME280;40174;52.364;6.452;2024-02-23T12:11:08;98803.41;;;5.97;100.00
54262;BME280;40174;52.364;6.452;2024-02-23T12:13:35;98802.72;;;5.95;100.00
54262;BME280;40174;52.364;6.452;2024-02-23T12:16:02;98790.72;;;5.93;100.00
54262;BME280;40174;52.364;6.452;2024-02-23T12:18:29;98803.28;;;5.99;100.00
54262;BME280;40174;52.364;6.452;2024-02-23T12:20:59;98796.91;;;5.92;100.00
54262;BME280;40174;52.364;6.452;2024-02-23T12:23:27;98804.53;;;5.95;100.00
54262;BME280;40174;52.364;6.452;2024-02-23T12:25:54;98805.06;;;5.98;100.00
54262;BME280;40174;52.364;6.452;2024-02-23T12:28:21;98813.47;;;6.02;100.00
54262;BME280;40174;52.364;6.452;2024-02-23T12:30:58;98805.72;;;6.10;100.00
54262;BME280;40174;52.364;6.452;2024-02-23T12:33:27;98804.59;;;6.13;100.00
54262;BME280;40174;52.364;6.452;2024-02-23T12:35:54;98800.81;;;6.25;100.00
54262;BME280;40174;52.364;6.452;2024-02-23T12:38:21;98807.53;;;6.37;100.00
54262;BME280;40174;52.364;6.452;2024-02-23T12:40:49;98804.34;;;6.43;100.00
54262;BME280;40174;52.364;6.452;2024-02-23T12:43:15;98810.09;;;6.47;100.00
54262;BME280;40174;52.364;6.452;2024-02-23T12:45:42;98815.34;;;6.47;100.00
54262;BME280;40174;52.364;6.452;2024-02-23T12:48:10;98816.72;;;6.51;100.00
54262;BME280;40174;52.364;6.452;2024-02-23T12:50:37;98814.22;;;6.50;100.00
54262;BME280;40174;52.364;6.452;2024-02-23T12:53:04;98828.84;;;6.52;100.00
54262;BME280;40174;52.364;6.452;2024-02-23T12:55:30;98830.16;;;6.48;100.00
54262;BME280;40174;52.364;6.452;2024-02-23T12:57:58;98834.84;;;6.44;100.00
54262;BME280;40174;52.364;6.452;2024-02-23T13:00:25;98830.41;;;6.45;100.00